Time;durP1;ratioP1;P1;durP2;ratioP2;P2;SDS_P1;SDS_P2;PMS_P1;PMS_P2;Temp;Humidity;BMP_temperature;BMP_pressure;BME280_temperature;BME280_humidity;BME280_pressure;Samples;Min_cycle;Max_cycle;Signal;HPM_P1;HPM_P2
2023/04/17 00:04:21;;;;;;;1.30;0.35;;;3.90;99.90;;;;;;20765543;28;20502;-53
2023/04/17 00:14:24;;;;;;;0.30;0.13;;;3.80;99.90;;;;;;20765221;28;20104;-50
2023/04/17 00:24:25;;;;;;;1.95;0.30;;;3.30;99.90;;;;;;20764907;28;20036;-54
2023/04/17 00:34:27;;;;;;;0.10;0.10;;;3.30;99.90;;;;;;20764535;28;20088;-50
2023/04/17 00:44:29;;;;;;;0.20;0.20;;;3.10;99.90;;;;;;20754950;28;20572;-49
2023/04/17 00:54:31;;;;;;;0.57;0.20;;;3.80;99.90;;;;;;20749410;28;20037;-53
2023/04/17 01:04:33;;;;;;;0.45;0.20;;;4.20;99.90;;;;;;20748563;28;20080;-61
2023/04/17 01:14:35;;;;;;;0.43;0.10;;;4.10;99.90;;;;;;20749331;28;20483;-52
2023/04/17 01:24:37;;;;;;;0.40;0.13;;;4.30;99.90;;;;;;20748018;28;20251;-53
2023/04/17 01:34:39;;;;;;;0.38;0.20;;;4.10;99.90;;;;;;20746353;28;20036;-52
2023/04/17 01:44:41;;;;;;;0.20;0.10;;;3.40;99.90;;;;;;20746563;28;20045;-50
2023/04/17 01:54:42;;;;;;;0.40;0.20;;;2.70;99.90;;;;;;20728050;28;20076;-52
2023/04/17 02:04:44;;;;;;;0.50;0.20;;;2.10;99.90;;;;;;20744849;28;20120;-52
2023/04/17 02:14:45;;;;;;;0.45;0.10;;;1.70;99.90;;;;;;20744880;28;20507;-52
2023/04/17 02:24:47;;;;;;;0.43;0.10;;;1.60;99.90;;;;;;20743304;28;20377;-52
2023/04/17 02:34:49;;;;;;;0.10;0.08;;;1.90;99.90;;;;;;20741726;28;20459;-52
2023/04/17 02:44:52;;;;;;;0.22;0.10;;;2.80;99.90;;;;;;20725408;28;20038;-60
2023/04/17 02:54:56;;;;;;;0.40;0.10;;;3.30;99.90;;;;;;20740384;28;20495;-53
2023/04/17 03:05:02;;;;;;;0.08;0.00;;;3.30;99.90;;;;;;20739550;28;20037;-52
2023/04/17 03:15:06;;;;;;;0.05;0.00;;;3.00;99.90;;;;;;20739712;28;20072;-52
2023/04/17 03:25:09;;;;;;;0.32;0.10;;;3.00;99.90;;;;;;20738418;28;20405;-52
2023/04/17 03:35:21;;;;;;;0.20;0.00;;;3.00;99.90;;;;;;20739231;28;20041;-50
2023/04/17 03:45:23;;;;;;;0.10;0.08;;;3.60;99.90;;;;;;20739263;28;20034;-53
2023/04/17 03:55:25;;;;;;;0.47;0.03;;;4.10;99.90;;;;;;20737522;28;20407;-52
2023/04/17 04:05:28;;;;;;;0.00;0.00;;;4.10;99.90;;;;;;20739857;28;20038;-52
2023/04/17 04:15:30;;;;;;;0.47;0.10;;;4.20;99.90;;;;;;20722364;28;20041;-49
2023/04/17 04:25:40;;;;;;;0.22;0.10;;;4.10;99.90;;;;;;20751750;28;20038;-52
2023/04/17 04:36:05;;;;;;;0.10;0.00;;;4.00;99.90;;;;;;20751236;28;20030;-49
2023/04/17 04:46:10;;;;;;;0.10;0.10;;;4.10;99.90;;;;;;20751050;28;20549;-51
2023/04/17 04:56:15;;;;;;;0.00;0.00;;;4.30;99.70;;;;;;20749596;28;20034;-49
2023/04/17 05:06:19;;;;;;;0.65;0.10;;;4.90;99.20;;;;;;20748772;28;20034;-50
2023/04/17 05:16:25;;;;;;;0.00;0.00;;;5.10;97.30;;;;;;20748018;28;20054;-50
2023/04/17 05:26:27;;;;;;;0.10;0.03;;;5.20;96.90;;;;;;20710746;28;20041;-51
2023/04/17 05:36:31;;;;;;;0.15;0.10;;;5.40;96.90;;;;;;20747105;28;20057;-50
2023/04/17 05:46:36;;;;;;;0.30;0.10;;;5.50;95.80;;;;;;20745256;28;20038;-53
2023/04/17 05:56:39;;;;;;;0.10;0.00;;;5.60;95.60;;;;;;20745541;28;20025;-52
2023/04/17 06:06:41;;;;;;;0.57;0.00;;;5.60;96.70;;;;;;20725668;28;20034;-51
2023/04/17 06:16:42;;;;;;;0.17;0.10;;;5.50;96.80;;;;;;20743925;28;20104;-62
2023/04/17 06:26:44;;;;;;;0.00;0.00;;;5.30;97.50;;;;;;20709191;28;20022;-50
2023/04/17 06:36:47;;;;;;;0.10;0.00;;;5.50;97.40;;;;;;20736834;28;20038;-49
2023/04/17 06:46:52;;;;;;;0.10;0.00;;;5.80;95.60;;;;;;20742334;28;20437;-63
2023/04/17 06:56:54;;;;;;;0.10;0.10;;;6.00;95.40;;;;;;20740143;28;20387;-53
2023/04/17 07:06:56;;;;;;;0.55;0.10;;;6.40;96.10;;;;;;20741068;28;20383;-50
2023/04/17 07:16:58;;;;;;;0.50;0.10;;;6.30;95.50;;;;;;20739516;28;20050;-48
2023/04/17 07:27:01;;;;;;;0.10;0.03;;;6.60;95.00;;;;;;20738655;28;20520;-62
2023/04/17 07:37:03;;;;;;;0.00;0.00;;;6.80;95.00;;;;;;20732358;28;20041;-63
2023/04/17 07:47:04;;;;;;;0.10;0.10;;;7.10;93.60;;;;;;20696008;28;20084;-64
2023/04/17 07:57:07;;;;;;;0.20;0.20;;;7.70;94.60;;;;;;20735546;28;20080;-64
2023/04/17 08:07:09;;;;;;;1.00;0.20;;;8.70;93.00;;;;;;20754630;28;20037;-53
2023/04/17 08:17:11;;;;;;;0.10;0.10;;;8.10;92.10;;;;;;20752120;28;20522;-50
2023/04/17 08:27:13;;;;;;;0.40;0.15;;;7.90;92.10;;;;;;20752660;28;20539;-52
2023/04/17 08:37:15;;;;;;;1.67;0.15;;;7.90;92.10;;;;;;20751838;28;20054;-64
2023/04/17 08:47:17;;;;;;;0.10;0.10;;;8.30;91.70;;;;;;20750526;28;20084;-52
2023/04/17 08:57:18;;;;;;;0.20;0.10;;;8.60;90.60;;;;;;20750423;28;20092;-51
2023/04/17 09:07:28;;;;;;;0.10;0.10;;;8.00;90.80;;;;;;20745815;28;20088;-52
2023/04/17 09:17:36;;;;;;;0.20;0.10;;;8.00;90.90;;;;;;20731387;28;20058;-52
2023/04/17 09:27:37;;;;;;;0.20;0.10;;;8.50;90.70;;;;;;20747767;28;20392;-52
2023/04/17 09:37:53;;;;;;;0.30;0.10;;;8.30;90.30;;;;;;20747204;28;20037;-52
2023/04/17 09:47:55;;;;;;;0.30;0.20;;;8.50;90.00;;;;;;20745558;28;20034;-64
2023/04/17 09:57:58;;;;;;;0.20;0.20;;;8.80;90.00;;;;;;20745597;28;20468;-49
2023/04/17 10:08:00;;;;;;;0.20;0.20;;;8.90;91.70;;;;;;20742531;28;20025;-52
2023/04/17 10:18:23;;;;;;;0.13;0.10;;;8.80;91.40;;;;;;20742864;28;20365;-63
2023/04/17 10:28:46;;;;;;;0.35;0.20;;;9.20;91.50;;;;;;20741681;28;20034;-63
2023/04/17 10:38:48;;;;;;;0.22;0.15;;;9.50;91.20;;;;;;20743772;28;20065;-51
2023/04/17 10:48:52;;;;;;;0.30;0.20;;;9.20;90.80;;;;;;20744188;28;20456;-63
2023/04/17 10:59:05;;;;;;;0.20;0.10;;;9.90;91.00;;;;;;20741335;28;20030;-48
2023/04/17 11:09:08;;;;;;;0.70;0.20;;;11.40;88.40;;;;;;20740976;28;20376;-51
2023/04/17 11:19:12;;;;;;;0.35;0.30;;;12.00;92.00;;;;;;20740783;28;20103;-50
2023/04/17 11:29:17;;;;;;;0.50;0.30;;;13.10;88.90;;;;;;20740175;28;20029;-53
2023/04/17 11:39:21;;;;;;;0.20;0.20;;;13.10;85.00;;;;;;20739382;28;20114;-53
2023/04/17 11:49:30;;;;;;;0.20;0.20;;;12.20;82.10;;;;;;20739266;28;20399;-49
2023/04/17 11:59:37;;;;;;;0.30;0.20;;;11.90;83.80;;;;;;20738695;28;20096;-63
2023/04/17 12:09:38;;;;;;;0.22;0.22;;;12.40;81.10;;;;;;20735471;28;20103;-51
2023/04/17 12:19:40;;;;;;;0.30;0.20;;;12.40;81.90;;;;;;20738562;28;20116;-51
2023/04/17 12:29:41;;;;;;;0.50;0.30;;;11.70;81.10;;;;;;20737344;28;20034;-65
2023/04/17 12:39:43;;;;;;;0.90;0.50;;;12.80;87.50;;;;;;20742701;28;20029;-53
2023/04/17 12:49:45;;;;;;;1.40;0.60;;;13.70;91.10;;;;;;20752704;28;20104;-53
2023/04/17 12:59:46;;;;;;;0.82;0.60;;;13.90;91.10;;;;;;20739648;28;20415;-53
2023/04/17 13:09:48;;;;;;;1.27;0.50;;;13.90;91.80;;;;;;20745604;28;20132;-53
2023/04/17 13:19:50;;;;;;;0.65;0.50;;;13.90;90.90;;;;;;20747548;28;20049;-51
2023/04/17 13:29:53;;;;;;;3.20;1.40;;;14.50;90.20;;;;;;20747296;28;20112;-52
2023/04/17 13:39:54;;;;;;;2.65;1.55;;;15.70;93.30;;;;;;20747033;28;20088;-53
2023/04/17 13:49:56;;;;;;;1.92;1.60;;;16.40;89.00;;;;;;20746406;28;20089;-53
2023/04/17 13:59:58;;;;;;;3.85;1.85;;;15.30;90.10;;;;;;20745841;28;20034;-62
2023/04/17 14:09:59;;;;;;;2.17;1.80;;;14.20;91.10;;;;;;20741678;28;20033;-55
2023/04/17 14:20:01;;;;;;;4.18;2.40;;;13.10;92.20;;;;;;20680561;28;20037;-56
2023/04/17 14:30:03;;;;;;;5.05;2.60;;;12.50;91.90;;;;;;20743586;28;20033;-55
2023/04/17 14:40:06;;;;;;;5.25;3.40;;;12.10;93.60;;;;;;20741552;28;20038;-63
2023/04/17 14:50:08;;;;;;;6.18;3.50;;;11.80;94.50;;;;;;20741974;28;20053;-54
2023/04/17 15:00:10;;;;;;;5.70;3.67;;;11.40;96.00;;;;;;20724419;28;20045;-63
2023/04/17 15:10:13;;;;;;;4.95;3.25;;;11.30;95.70;;;;;;20740700;28;20096;-53
2023/04/17 15:20:15;;;;;;;7.30;3.75;;;11.30;95.90;;;;;;20738483;28;20081;-54
2023/04/17 15:30:16;;;;;;;4.80;3.92;;;11.10;97.60;;;;;;20738159;28;20042;-54
2023/04/17 15:40:18;;;;;;;6.10;4.30;;;10.70;97.20;;;;;;20741915;28;20042;-54
2023/04/17 15:50:20;;;;;;;6.03;4.25;;;10.40;96.20;;;;;;20738949;28;20399;-54
2023/04/17 16:00:22;;;;;;;7.25;4.30;;;10.10;98.00;;;;;;20738477;28;20375;-53
2023/04/17 16:10:24;;;;;;;6.53;4.85;;;10.00;98.90;;;;;;20738635;28;20038;-54
2023/04/17 16:20:25;;;;;;;8.80;6.22;;;10.00;99.90;;;;;;20753711;28;20046;-64
2023/04/17 16:30:27;;;;;;;8.25;5.43;;;9.90;99.70;;;;;;20751683;28;20108;-52
2023/04/17 16:40:29;;;;;;;6.60;5.00;;;9.60;98.80;;;;;;20749880;28;20100;-54
2023/04/17 16:50:31;;;;;;;8.32;5.97;;;9.20;99.50;;;;;;20752047;28;20034;-55
2023/04/17 17:00:33;;;;;;;8.88;6.45;;;9.00;99.90;;;;;;20752002;28;20387;-55
2023/04/17 17:10:34;;;;;;;11.95;6.80;;;8.90;99.90;;;;;;20749727;28;20442;-52
2023/04/17 17:20:36;;;;;;;11.65;7.38;;;8.60;99.90;;;;;;20731134;28;20042;-54
2023/04/17 17:30:38;;;;;;;13.38;7.63;;;8.10;99.90;;;;;;20747966;28;20045;-55
2023/04/17 17:40:40;;;;;;;11.40;7.28;;;7.60;99.90;;;;;;20745634;28;20084;-53
2023/04/17 17:50:43;;;;;;;10.50;6.85;;;7.20;99.90;;;;;;20747195;28;20045;-52
2023/04/17 18:00:44;;;;;;;11.75;7.30;;;6.80;99.90;;;;;;20745245;28;20068;-53
2023/04/17 18:10:46;;;;;;;9.15;6.47;;;6.50;99.90;;;;;;20745247;28;20038;-63
2023/04/17 18:20:47;;;;;;;6.63;3.80;;;6.10;99.90;;;;;;20742874;28;20100;-53
2023/04/17 18:30:49;;;;;;;4.82;2.90;;;5.90;99.90;;;;;;20743565;28;20073;-63
2023/04/17 18:40:56;;;;;;;3.95;2.55;;;5.70;99.90;;;;;;20740175;28;20045;-63
2023/04/17 18:51:06;;;;;;;4.97;3.30;;;5.60;99.90;;;;;;20744597;28;20042;-63
2023/04/17 19:01:09;;;;;;;4.20;2.45;;;5.60;99.90;;;;;;20741124;28;20561;-63
2023/04/17 19:11:11;;;;;;;4.35;2.80;;;5.60;99.90;;;;;;20738709;28;20041;-63
2023/04/17 19:21:14;;;;;;;3.88;2.65;;;5.80;99.90;;;;;;20739931;28;20461;-63
2023/04/17 19:31:16;;;;;;;9.13;3.55;;;5.80;99.90;;;;;;20739694;28;20077;-64
2023/04/17 19:41:18;;;;;;;4.35;2.97;;;5.60;99.90;;;;;;20736942;28;20046;-51
2023/04/17 19:51:20;;;;;;;4.25;2.60;;;5.80;99.90;;;;;;20751076;28;20088;-64
2023/04/17 20:01:21;;;;;;;3.20;2.03;;;6.00;99.90;;;;;;20754991;28;20041;-52
2023/04/17 20:11:24;;;;;;;4.15;2.30;;;6.20;99.90;;;;;;20754657;28;20030;-53
2023/04/17 20:21:25;;;;;;;3.10;1.80;;;6.30;99.90;;;;;;20751795;28;20121;-54
2023/04/17 20:31:27;;;;;;;5.03;1.90;;;6.30;99.90;;;;;;20752705;28;20034;-51
2023/04/17 20:41:28;;;;;;;3.78;1.80;;;6.10;99.90;;;;;;20752130;28;20486;-54
2023/04/17 20:51:30;;;;;;;2.75;1.70;;;5.80;99.90;;;;;;20750262;28;20100;-49
2023/04/17 21:01:32;;;;;;;1.83;1.48;;;5.50;99.90;;;;;;20749218;28;20045;-55
2023/04/17 21:11:34;;;;;;;2.15;1.50;;;5.50;99.90;;;;;;20748660;28;20467;-53
2023/04/17 21:21:36;;;;;;;1.60;1.20;;;5.70;99.90;;;;;;20749280;28;20041;-54
2023/04/17 21:31:38;;;;;;;2.40;1.27;;;5.80;99.90;;;;;;20748142;28;20068;-52
2023/04/17 21:41:39;;;;;;;2.17;1.17;;;5.80;99.90;;;;;;20746001;28;20042;-63
2023/04/17 21:51:41;;;;;;;1.80;1.30;;;5.80;99.90;;;;;;20745080;28;20388;-49
2023/04/17 22:01:43;;;;;;;2.22;1.42;;;5.80;99.90;;;;;;20745491;28;20044;-63
2023/04/17 22:11:45;;;;;;;2.50;1.52;;;5.80;99.90;;;;;;20745049;28;20537;-53
2023/04/17 22:21:47;;;;;;;2.42;1.40;;;5.90;99.90;;;;;;20743800;28;20495;-63
2023/04/17 22:31:49;;;;;;;2.65;1.42;;;6.00;99.90;;;;;;20741790;28;20092;-52
2023/04/17 22:41:50;;;;;;;2.08;1.40;;;6.30;99.90;;;;;;20743193;28;20034;-52
2023/04/17 22:51:52;;;;;;;3.08;1.10;;;6.60;99.90;;;;;;20742896;28;20541;-52
2023/04/17 23:01:53;;;;;;;3.35;1.30;;;6.40;99.90;;;;;;20741579;28;20026;-52
2023/04/17 23:11:55;;;;;;;1.70;1.13;;;6.60;99.90;;;;;;20739837;28;20108;-53
2023/04/17 23:21:58;;;;;;;2.45;1.55;;;6.50;99.90;;;;;;20722297;28;20046;-52
2023/04/17 23:31:59;;;;;;;2.00;1.20;;;5.90;99.90;;;;;;20738596;28;20045;-52
2023/04/17 23:42:05;;;;;;;1.63;1.00;;;5.50;99.90;;;;;;20739697;28;20033;-49
2023/04/17 23:52:08;;;;;;;2.15;0.90;;;5.60;99.90;;;;;;20739517;28;20042;-52
